Time;durP1;ratioP1;P1;durP2;ratioP2;P2;SDS_P1;SDS_P2;PMS_P1;PMS_P2;Temp;Humidity;BMP_temperature;BMP_pressure;BME280_temperature;BME280_humidity;BME280_pressure;Samples;Min_cycle;Max_cycle;Signal;HPM_P1;HPM_P2
2023/04/23 00:00:14;;;;;;;8.15;5.72;;;25.60;99.90;;;;;;4956206;28;20051;-55
2023/04/23 00:02:45;;;;;;;9.32;5.85;;;25.60;99.90;;;;;;4961294;28;20030;-51
2023/04/23 00:05:11;;;;;;;9.13;5.85;;;25.60;99.90;;;;;;4974969;28;20492;-53
2023/04/23 00:07:38;;;;;;;10.68;5.88;;;25.60;99.90;;;;;;4962414;28;20031;-49
2023/04/23 00:10:07;;;;;;;10.80;5.35;;;25.60;99.90;;;;;;4959378;28;20031;-50
2023/04/23 00:12:34;;;;;;;8.23;5.93;;;25.60;99.90;;;;;;4975932;28;20046;-50
2023/04/23 00:15:01;;;;;;;8.05;5.30;;;25.60;99.90;;;;;;4990679;28;20028;-53
2023/04/23 00:17:26;;;;;;;7.35;5.57;;;25.60;99.90;;;;;;4995642;28;20033;-52
2023/04/23 00:19:52;;;;;;;8.13;5.45;;;25.60;99.90;;;;;;4995261;28;20039;-52
2023/04/23 00:22:19;;;;;;;8.07;5.47;;;25.60;99.90;;;;;;4995723;28;20042;-52
2023/04/23 00:24:45;;;;;;;14.35;6.03;;;25.50;99.90;;;;;;4995174;28;20096;-52
2023/04/23 00:27:11;;;;;;;8.40;5.53;;;25.50;99.90;;;;;;4995027;28;20037;-52
2023/04/23 00:29:37;;;;;;;6.97;5.15;;;25.50;99.90;;;;;;4994325;28;20376;-53
2023/04/23 00:32:04;;;;;;;7.50;5.63;;;25.60;99.90;;;;;;4992867;28;20037;-50
2023/04/23 00:34:29;;;;;;;8.82;5.82;;;25.50;99.90;;;;;;4993304;28;20030;-53
2023/04/23 00:36:55;;;;;;;6.70;5.03;;;25.50;99.90;;;;;;4993275;28;20373;-50
2023/04/23 00:39:21;;;;;;;7.55;5.28;;;25.50;99.90;;;;;;4992844;28;20455;-53
2023/04/23 00:41:47;;;;;;;7.40;5.65;;;25.50;99.90;;;;;;4993228;28;20034;-52
2023/04/23 00:44:13;;;;;;;8.35;5.47;;;25.50;99.90;;;;;;4994134;28;20022;-54
2023/04/23 00:46:39;;;;;;;8.63;5.90;;;25.50;99.90;;;;;;4994455;28;20477;-54
2023/04/23 00:49:05;;;;;;;8.35;5.40;;;25.40;99.90;;;;;;4984399;28;20078;-54
2023/04/23 00:51:31;;;;;;;7.07;5.03;;;25.40;99.90;;;;;;4975628;28;20165;-53
2023/04/23 00:53:57;;;;;;;9.52;4.80;;;25.40;99.90;;;;;;4994823;28;20113;-53
2023/04/23 00:56:24;;;;;;;7.97;4.82;;;25.40;99.90;;;;;;4995070;28;20030;-54
2023/04/23 00:58:53;;;;;;;7.18;4.82;;;25.40;99.90;;;;;;4994708;28;20464;-54
2023/04/23 01:01:22;;;;;;;8.05;4.63;;;25.40;99.90;;;;;;5015334;22;20419;-57
2023/04/23 01:03:51;;;;;;;6.30;4.70;;;25.40;99.90;;;;;;4996545;28;20022;-57
2023/04/23 01:06:17;;;;;;;7.15;4.85;;;25.40;99.90;;;;;;5013859;28;20018;-57
2023/04/23 01:08:45;;;;;;;6.78;4.97;;;25.40;99.90;;;;;;5013930;28;20018;-59
2023/04/23 01:11:15;;;;;;;8.55;4.53;;;25.40;99.90;;;;;;5013268;28;20026;-57
2023/04/23 01:13:41;;;;;;;8.27;5.15;;;25.40;99.90;;;;;;5013874;28;20096;-58
2023/04/23 01:16:08;;;;;;;7.10;5.13;;;25.40;99.90;;;;;;4996233;28;20036;-57
2023/04/23 01:18:34;;;;;;;8.82;4.53;;;25.40;99.90;;;;;;4996573;28;20040;-57
2023/04/23 01:21:00;;;;;;;8.13;4.38;;;25.40;99.90;;;;;;5013388;28;20026;-58
2023/04/23 01:23:26;;;;;;;6.28;3.90;;;25.30;99.90;;;;;;5012705;28;20026;-58
2023/04/23 01:25:53;;;;;;;10.70;4.70;;;25.30;99.90;;;;;;5000775;28;20030;-58
2023/04/23 01:28:20;;;;;;;7.70;4.75;;;25.40;99.90;;;;;;4972573;28;20459;-58
2023/04/23 01:30:46;;;;;;;8.02;4.07;;;25.30;99.90;;;;;;4973599;28;20077;-58
2023/04/23 01:33:12;;;;;;;7.18;4.28;;;25.30;99.90;;;;;;4974850;28;20030;-58
2023/04/23 01:35:40;;;;;;;7.38;4.13;;;25.30;99.90;;;;;;4989125;28;20437;-58
2023/04/23 01:38:09;;;;;;;6.20;4.47;;;25.30;99.90;;;;;;5000575;28;20481;-58
2023/04/23 01:40:35;;;;;;;7.60;4.38;;;25.20;99.90;;;;;;5009080;28;20025;-57
2023/04/23 01:43:01;;;;;;;5.72;4.10;;;25.30;99.90;;;;;;5012868;28;20026;-58
2023/04/23 01:45:27;;;;;;;7.18;4.55;;;25.30;99.90;;;;;;5012844;28;20028;-58
2023/04/23 01:47:53;;;;;;;10.23;4.50;;;25.30;99.90;;;;;;4979832;28;20029;-59
2023/04/23 01:50:22;;;;;;;7.00;3.92;;;25.30;99.90;;;;;;4995587;28;20391;-58
2023/04/23 01:52:47;;;;;;;6.03;4.40;;;25.20;99.90;;;;;;5013023;28;20575;-58
2023/04/23 01:55:13;;;;;;;6.25;4.00;;;25.30;99.90;;;;;;5013401;28;20034;-59
2023/04/23 01:57:39;;;;;;;10.38;4.60;;;25.20;99.90;;;;;;5012427;28;20105;-58
2023/04/23 02:00:10;;;;;;;8.43;4.30;;;25.20;99.90;;;;;;5013474;28;20077;-58
2023/04/23 02:02:37;;;;;;;8.50;4.80;;;25.20;99.90;;;;;;5012740;28;20119;-58
2023/04/23 02:05:03;;;;;;;11.27;5.07;;;25.20;99.90;;;;;;4995496;28;20057;-57
2023/04/23 02:07:31;;;;;;;8.87;4.60;;;25.20;99.90;;;;;;5013183;28;20034;-58
2023/04/23 02:09:57;;;;;;;5.55;4.20;;;25.20;99.90;;;;;;5012988;28;20298;-57
2023/04/23 02:12:24;;;;;;;6.63;4.05;;;25.20;99.90;;;;;;5013262;28;20014;-57
2023/04/23 02:14:50;;;;;;;9.43;4.70;;;25.20;99.90;;;;;;5013047;28;20025;-57
2023/04/23 02:17:17;;;;;;;11.45;5.78;;;25.20;99.90;;;;;;5012635;28;20021;-57
2023/04/23 02:19:43;;;;;;;6.63;4.60;;;25.10;99.90;;;;;;5007148;28;20026;-58
2023/04/23 02:22:09;;;;;;;7.85;4.50;;;25.20;99.90;;;;;;5005745;28;20034;-57
2023/04/23 02:24:35;;;;;;;7.10;4.28;;;25.10;99.90;;;;;;4999413;28;20021;-58
2023/04/23 02:27:01;;;;;;;5.90;4.78;;;25.10;99.90;;;;;;5012844;28;20026;-57
2023/04/23 02:29:26;;;;;;;7.13;4.35;;;25.10;99.90;;;;;;5012602;28;20071;-57
2023/04/23 02:31:52;;;;;;;6.15;4.05;;;25.10;99.90;;;;;;5012880;28;20084;-57
2023/04/23 02:34:18;;;;;;;9.13;3.95;;;25.10;99.90;;;;;;4999401;28;20037;-59
2023/04/23 02:36:44;;;;;;;6.28;4.20;;;25.10;99.90;;;;;;5012647;28;20483;-57
2023/04/23 02:39:09;;;;;;;8.15;4.75;;;25.10;99.90;;;;;;5011218;28;20021;-58
2023/04/23 02:41:35;;;;;;;5.88;4.03;;;25.10;99.90;;;;;;5000528;28;20100;-58
2023/04/23 02:44:01;;;;;;;8.10;4.50;;;25.10;99.90;;;;;;5012472;28;20108;-57
2023/04/23 02:46:27;;;;;;;8.98;4.38;;;25.10;99.90;;;;;;5012537;28;20088;-57
2023/04/23 02:48:53;;;;;;;6.38;4.20;;;25.10;99.90;;;;;;5012086;28;20026;-57
2023/04/23 02:51:18;;;;;;;7.95;4.30;;;25.00;99.90;;;;;;4999193;28;20645;-57
2023/04/23 02:53:44;;;;;;;8.00;4.32;;;25.00;99.90;;;;;;4985843;28;20101;-58
2023/04/23 02:56:10;;;;;;;5.45;3.78;;;25.00;99.90;;;;;;5012391;28;20030;-57
2023/04/23 02:58:36;;;;;;;6.57;4.20;;;25.00;99.90;;;;;;5012055;28;20030;-57
2023/04/23 03:01:02;;;;;;;10.77;4.70;;;25.00;99.90;;;;;;5012540;28;20069;-57
2023/04/23 03:03:30;;;;;;;6.28;3.90;;;25.00;99.90;;;;;;5012163;28;20037;-57
2023/04/23 03:05:57;;;;;;;5.90;4.05;;;25.00;99.90;;;;;;5011973;28;20418;-57
2023/04/23 03:08:22;;;;;;;6.10;3.93;;;25.00;99.90;;;;;;5011580;28;20040;-57
2023/04/23 03:10:48;;;;;;;6.13;4.35;;;25.00;99.90;;;;;;5003251;28;20027;-58
2023/04/23 03:13:14;;;;;;;6.15;3.58;;;25.00;99.90;;;;;;5007481;28;20050;-58
2023/04/23 03:15:40;;;;;;;4.65;3.70;;;25.00;99.90;;;;;;5011746;28;20046;-58
2023/04/23 03:18:07;;;;;;;7.15;3.97;;;25.00;99.90;;;;;;5011827;28;20064;-58
2023/04/23 03:20:34;;;;;;;4.60;3.85;;;25.00;99.90;;;;;;5012130;28;20045;-59
2023/04/23 03:23:00;;;;;;;6.15;3.85;;;25.00;99.90;;;;;;5012205;28;20022;-58
2023/04/23 03:25:26;;;;;;;5.60;3.70;;;24.90;99.90;;;;;;5012148;28;20030;-58
2023/04/23 03:27:52;;;;;;;4.32;3.53;;;24.90;99.90;;;;;;5012031;28;20029;-58
2023/04/23 03:30:19;;;;;;;5.18;3.58;;;24.90;99.90;;;;;;5011939;28;20021;-58
2023/04/23 03:32:45;;;;;;;4.55;3.42;;;24.90;99.90;;;;;;5011723;28;20025;-58
2023/04/23 03:35:10;;;;;;;7.18;4.38;;;24.90;99.90;;;;;;5011866;28;20411;-58
2023/04/23 03:37:36;;;;;;;6.50;4.03;;;24.90;99.90;;;;;;5011678;28;20022;-58
2023/04/23 03:40:06;;;;;;;5.32;3.42;;;24.90;99.90;;;;;;5011574;28;20034;-58
2023/04/23 03:42:33;;;;;;;4.47;3.45;;;24.90;99.90;;;;;;5012000;28;20030;-58
2023/04/23 03:45:00;;;;;;;7.57;4.10;;;24.90;99.90;;;;;;5012037;28;20048;-59
2023/04/23 03:47:26;;;;;;;3.67;2.92;;;24.80;99.90;;;;;;5011880;28;20456;-58
2023/04/23 03:49:52;;;;;;;6.57;4.00;;;24.80;99.90;;;;;;4994003;28;20197;-58
2023/04/23 03:52:18;;;;;;;7.00;2.90;;;24.80;99.90;;;;;;5011517;28;20026;-58
2023/04/23 03:54:44;;;;;;;5.47;3.22;;;24.80;99.90;;;;;;5011936;28;20065;-58
2023/04/23 03:57:12;;;;;;;4.75;2.83;;;24.80;99.90;;;;;;4998299;28;20456;-58
2023/04/23 03:59:38;;;;;;;9.82;3.40;;;24.80;99.90;;;;;;5011564;28;20104;-59
2023/04/23 04:02:04;;;;;;;4.70;3.08;;;24.80;99.90;;;;;;5007044;28;20042;-58
2023/04/23 04:04:31;;;;;;;3.67;2.90;;;24.80;99.90;;;;;;5004235;28;20045;-58
2023/04/23 04:06:59;;;;;;;4.28;2.75;;;24.80;99.90;;;;;;5013787;28;20029;-58
2023/04/23 04:09:25;;;;;;;5.70;3.17;;;24.80;99.90;;;;;;5015357;28;20014;-58
2023/04/23 04:11:53;;;;;;;4.28;2.70;;;24.70;99.90;;;;;;5014790;28;20084;-58
2023/04/23 04:14:19;;;;;;;5.07;3.08;;;24.80;99.90;;;;;;5015110;28;20018;-58
2023/04/23 04:16:45;;;;;;;4.30;2.97;;;24.70;99.90;;;;;;5012262;28;20361;-58
2023/04/23 04:19:11;;;;;;;3.30;2.30;;;24.70;99.90;;;;;;5004843;28;20060;-58
2023/04/23 04:21:37;;;;;;;4.55;2.72;;;24.70;99.90;;;;;;5014690;28;20504;-58
2023/04/23 04:24:05;;;;;;;4.40;2.97;;;24.70;99.90;;;;;;5014827;28;20029;-57
2023/04/23 04:26:33;;;;;;;3.28;2.45;;;24.70;99.90;;;;;;5014886;28;20025;-57
2023/04/23 04:29:00;;;;;;;5.60;3.53;;;24.70;99.90;;;;;;5014972;28;20033;-57
2023/04/23 04:31:27;;;;;;;4.55;2.78;;;24.70;99.90;;;;;;5014085;28;20022;-57
2023/04/23 04:33:56;;;;;;;3.67;2.73;;;24.70;99.90;;;;;;5014920;28;20118;-57
2023/04/23 04:36:24;;;;;;;3.33;2.30;;;24.70;99.90;;;;;;5001843;28;20054;-57
2023/04/23 04:38:54;;;;;;;3.30;2.40;;;24.70;99.90;;;;;;5014583;28;20026;-58
2023/04/23 04:41:21;;;;;;;4.18;2.55;;;24.70;99.90;;;;;;5014138;28;20044;-57
2023/04/23 04:43:48;;;;;;;3.40;2.47;;;24.70;99.90;;;;;;5001124;28;20494;-57
2023/04/23 04:46:14;;;;;;;3.07;2.43;;;24.60;99.90;;;;;;5014517;28;20028;-59
2023/04/23 04:48:40;;;;;;;4.07;2.08;;;24.60;99.90;;;;;;5014638;28;20264;-59
2023/04/23 04:51:06;;;;;;;2.80;2.22;;;24.60;99.90;;;;;;5014399;28;20029;-58
2023/04/23 04:53:32;;;;;;;3.47;2.28;;;24.60;99.90;;;;;;5014265;28;20026;-58
2023/04/23 04:55:58;;;;;;;3.47;2.33;;;24.60;99.90;;;;;;4997078;28;20022;-57
2023/04/23 04:58:24;;;;;;;4.95;2.67;;;24.60;99.90;;;;;;5013822;28;20025;-58
2023/04/23 05:00:50;;;;;;;3.50;2.25;;;24.60;99.90;;;;;;5014122;28;20050;-58
2023/04/23 05:03:20;;;;;;;2.63;1.80;;;24.60;99.90;;;;;;5014145;28;20067;-59
2023/04/23 05:05:47;;;;;;;2.65;2.13;;;24.60;99.90;;;;;;5014391;28;20018;-59
2023/04/23 05:08:17;;;;;;;2.70;1.73;;;24.60;99.90;;;;;;5001184;28;20022;-57
2023/04/23 05:10:43;;;;;;;4.18;2.15;;;24.60;99.90;;;;;;5013879;28;20057;-57
2023/04/23 05:13:09;;;;;;;3.47;2.53;;;24.60;99.90;;;;;;5013978;28;20033;-57
2023/04/23 05:15:35;;;;;;;3.25;2.47;;;24.50;99.90;;;;;;5014256;28;20022;-58
2023/04/23 05:18:04;;;;;;;3.28;2.00;;;24.50;99.90;;;;;;5000848;28;20053;-58
2023/04/23 05:20:29;;;;;;;2.38;1.75;;;24.50;99.90;;;;;;4984789;28;20022;-58
2023/04/23 05:22:58;;;;;;;2.28;1.80;;;24.50;99.90;;;;;;5013900;28;20036;-59
2023/04/23 05:25:24;;;;;;;3.53;1.98;;;24.50;99.90;;;;;;5013553;28;20520;-58
2023/04/23 05:27:50;;;;;;;2.10;1.70;;;24.50;99.90;;;;;;5013776;28;20045;-57
2023/04/23 05:30:16;;;;;;;2.72;1.80;;;24.50;99.90;;;;;;5013096;28;20499;-57
2023/04/23 05:32:42;;;;;;;1.98;1.60;;;24.50;99.90;;;;;;5013553;28;20036;-57
2023/04/23 05:35:08;;;;;;;3.95;1.90;;;24.50;99.90;;;;;;5013608;28;20109;-57
2023/04/23 05:37:34;;;;;;;2.00;1.60;;;24.50;99.90;;;;;;5013360;28;20034;-59
2023/04/23 05:40:01;;;;;;;1.88;1.52;;;24.50;99.90;;;;;;4995214;28;20033;-57
2023/04/23 05:42:27;;;;;;;2.40;1.70;;;24.50;99.90;;;;;;5012616;28;20061;-59
2023/04/23 05:44:53;;;;;;;4.47;1.73;;;24.50;99.90;;;;;;5013494;28;20070;-57
2023/04/23 05:47:19;;;;;;;2.78;2.03;;;24.50;99.90;;;;;;5006765;28;20037;-57
2023/04/23 05:49:44;;;;;;;2.72;2.22;;;24.50;99.90;;;;;;5013603;28;20048;-57
2023/04/23 05:52:11;;;;;;;2.45;1.50;;;24.50;99.90;;;;;;4995209;28;20026;-58
2023/04/23 05:54:36;;;;;;;1.75;1.35;;;24.50;99.90;;;;;;5002533;28;20025;-59
2023/04/23 05:57:03;;;;;;;2.33;1.65;;;24.50;99.90;;;;;;4977491;28;20406;-58
2023/04/23 05:59:30;;;;;;;1.90;1.38;;;24.50;99.90;;;;;;5012898;28;20025;-57
2023/04/23 06:01:55;;;;;;;2.88;1.95;;;24.50;99.90;;;;;;5012986;28;20120;-59
2023/04/23 06:04:21;;;;;;;1.95;1.40;;;24.50;99.90;;;;;;5013121;28;20451;-58
2023/04/23 06:06:47;;;;;;;2.90;1.85;;;24.50;99.90;;;;;;5011446;28;20103;-59
2023/04/23 06:09:13;;;;;;;2.70;1.48;;;24.50;99.90;;;;;;5001744;28;20018;-58
2023/04/23 06:11:39;;;;;;;2.90;1.85;;;24.40;99.90;;;;;;5013158;28;20029;-58
2023/04/23 06:14:05;;;;;;;1.90;1.42;;;24.50;99.90;;;;;;5013246;28;20084;-58
2023/04/23 06:16:30;;;;;;;2.30;1.63;;;24.40;99.90;;;;;;5012902;28;20033;-58
2023/04/23 06:18:56;;;;;;;1.55;1.35;;;24.40;99.90;;;;;;5012869;28;20026;-58
2023/04/23 06:21:22;;;;;;;2.38;1.50;;;24.40;99.90;;;;;;5012690;28;20030;-58
2023/04/23 06:23:49;;;;;;;2.08;1.40;;;24.40;99.90;;;;;;5012744;28;20072;-58
2023/04/23 06:26:15;;;;;;;4.68;1.40;;;24.40;99.90;;;;;;5007301;28;20022;-57
2023/04/23 06:28:42;;;;;;;2.08;1.20;;;24.40;99.90;;;;;;5011271;28;20030;-58
2023/04/23 06:31:08;;;;;;;1.98;1.65;;;24.40;99.90;;;;;;5012670;28;20036;-58
2023/04/23 06:33:35;;;;;;;1.70;1.30;;;24.40;99.90;;;;;;4994817;28;20022;-58
2023/04/23 06:36:02;;;;;;;;;;;24.40;99.90;;;;;;5012822;28;20518;-58
2023/04/23 06:38:27;;;;;;;2.42;1.60;;;24.50;99.90;;;;;;5012548;28;19906;-58
2023/04/23 06:40:53;;;;;;;2.65;1.58;;;24.50;99.90;;;;;;5012477;28;20066;-60
2023/04/23 06:43:19;;;;;;;1.52;1.35;;;24.40;99.90;;;;;;5012358;28;20514;-59
2023/04/23 06:45:45;;;;;;;4.13;1.45;;;24.40;99.90;;;;;;4994648;28;20048;-57
2023/04/23 06:48:11;;;;;;;2.38;1.75;;;24.40;99.90;;;;;;5012465;28;20017;-57
2023/04/23 06:50:37;;;;;;;3.17;1.58;;;24.50;99.90;;;;;;5012382;28;20018;-58
2023/04/23 06:53:02;;;;;;;1.80;1.50;;;24.40;99.90;;;;;;5012379;28;20486;-58
2023/04/23 06:55:28;;;;;;;2.25;1.50;;;24.50;99.90;;;;;;4994483;28;20057;-58
2023/04/23 06:57:55;;;;;;;2.50;1.60;;;24.50;99.90;;;;;;5012221;28;20026;-58
2023/04/23 07:00:23;;;;;;;2.22;1.35;;;24.40;99.90;;;;;;5012248;28;20077;-58
2023/04/23 07:02:49;;;;;;;1.98;1.40;;;24.50;99.90;;;;;;5011367;28;20042;-58
2023/04/23 07:05:16;;;;;;;1.75;1.50;;;24.50;99.90;;;;;;5012263;28;20022;-58
2023/04/23 07:07:42;;;;;;;3.08;2.05;;;24.50;99.90;;;;;;5012005;28;20026;-58
2023/04/23 07:10:13;;;;;;;4.10;1.40;;;24.50;99.90;;;;;;5012145;28;20030;-59
2023/04/23 07:12:40;;;;;;;3.70;1.65;;;24.50;99.90;;;;;;5012526;28;20033;-58
2023/04/23 07:15:06;;;;;;;2.90;1.98;;;24.50;99.90;;;;;;5004446;28;20023;-58
2023/04/23 07:17:32;;;;;;;2.80;1.70;;;24.50;99.90;;;;;;5006593;28;20472;-58
2023/04/23 07:19:58;;;;;;;3.67;2.10;;;24.50;99.90;;;;;;5011797;28;20480;-58
2023/04/23 07:22:25;;;;;;;3.15;1.65;;;24.50;99.90;;;;;;5012127;28;20038;-58
2023/04/23 07:24:51;;;;;;;1.83;1.70;;;24.50;99.90;;;;;;5012105;28;20065;-58
2023/04/23 07:27:17;;;;;;;3.97;2.08;;;24.50;99.90;;;;;;4994480;28;20260;-58
2023/04/23 07:29:43;;;;;;;3.80;1.70;;;24.50;99.90;;;;;;4999069;28;20042;-58
2023/04/23 07:32:09;;;;;;;3.38;2.05;;;24.50;99.90;;;;;;5012082;28;20065;-58
2023/04/23 07:34:37;;;;;;;2.45;1.80;;;24.50;99.90;;;;;;5008477;28;20019;-58
2023/04/23 07:37:03;;;;;;;1.98;1.60;;;24.50;99.90;;;;;;5002405;28;20428;-57
2023/04/23 07:39:29;;;;;;;3.22;1.83;;;24.50;99.90;;;;;;5011416;28;20118;-58
2023/04/23 07:41:58;;;;;;;2.47;1.77;;;24.50;99.90;;;;;;5015744;28;20492;-57
2023/04/23 07:44:23;;;;;;;2.30;1.77;;;24.50;99.90;;;;;;5015368;28;20376;-57
2023/04/23 07:46:50;;;;;;;2.67;1.90;;;24.60;99.90;;;;;;4997909;28;20027;-58
2023/04/23 07:49:16;;;;;;;3.05;2.30;;;24.60;99.90;;;;;;5015577;28;20464;-57
2023/04/23 07:51:41;;;;;;;4.05;2.25;;;24.50;99.90;;;;;;5002782;28;20114;-57
2023/04/23 07:54:08;;;;;;;2.92;1.90;;;24.60;99.90;;;;;;5015444;28;20061;-58
2023/04/23 07:56:35;;;;;;;4.27;2.13;;;24.60;99.90;;;;;;5015464;28;20026;-58
2023/04/23 07:59:01;;;;;;;3.43;2.03;;;24.60;99.90;;;;;;5015361;28;20041;-57
2023/04/23 08:01:27;;;;;;;2.90;1.83;;;24.60;99.90;;;;;;4997444;28;20084;-57
2023/04/23 08:03:55;;;;;;;2.97;2.15;;;24.50;99.90;;;;;;4964110;28;20026;-60
2023/04/23 08:06:22;;;;;;;2.35;1.58;;;24.60;99.90;;;;;;4990776;28;20030;-60
2023/04/23 08:08:48;;;;;;;3.92;2.08;;;24.60;99.90;;;;;;4997716;28;20022;-58
2023/04/23 08:11:15;;;;;;;2.80;1.80;;;24.60;99.90;;;;;;4997981;28;20156;-57
2023/04/23 08:13:41;;;;;;;3.35;2.00;;;24.60;99.90;;;;;;5015166;28;20021;-57
2023/04/23 08:16:07;;;;;;;3.05;1.70;;;24.60;99.90;;;;;;5005659;28;20035;-57
2023/04/23 08:18:34;;;;;;;3.63;2.10;;;24.60;99.90;;;;;;5011289;28;20141;-58
2023/04/23 08:21:00;;;;;;;2.90;2.00;;;24.70;99.90;;;;;;5014889;28;20044;-59
2023/04/23 08:23:26;;;;;;;3.25;2.22;;;24.60;99.90;;;;;;5015037;28;20274;-57
2023/04/23 08:25:52;;;;;;;2.60;1.90;;;24.70;99.90;;;;;;4997450;28;20387;-59
2023/04/23 08:28:18;;;;;;;3.55;1.67;;;24.60;99.90;;;;;;4997380;28;20033;-57
2023/04/23 08:30:45;;;;;;;3.25;2.15;;;24.70;99.90;;;;;;5015029;28;20060;-58
2023/04/23 08:33:11;;;;;;;3.00;1.90;;;24.60;99.90;;;;;;5014576;28;20435;-59
2023/04/23 08:35:37;;;;;;;2.20;1.75;;;24.70;99.90;;;;;;5014857;28;20026;-59
2023/04/23 08:38:03;;;;;;;3.25;2.13;;;24.70;99.90;;;;;;5014425;28;20033;-57
2023/04/23 08:40:30;;;;;;;2.78;2.00;;;24.70;99.90;;;;;;4996743;28;20104;-58
2023/04/23 08:42:57;;;;;;;;;;;24.70;99.90;;;;;;5014909;28;20026;-57
2023/04/23 08:45:25;;;;;;;5.00;1.85;;;24.70;99.90;;;;;;5014324;28;20306;-57
2023/04/23 08:47:50;;;;;;;3.08;1.70;;;24.70;99.90;;;;;;5014660;28;20117;-58
2023/04/23 08:50:18;;;;;;;3.22;1.90;;;24.70;99.90;;;;;;5014502;28;20104;-57
2023/04/23 08:52:53;;;;;;;8.07;2.83;;;24.70;99.90;;;;;;5013806;28;20040;-57
2023/04/23 08:55:20;;;;;;;3.22;2.03;;;24.70;99.90;;;;;;5014361;28;20022;-57
2023/04/23 08:57:47;;;;;;;9.40;2.20;;;24.70;99.90;;;;;;5014554;28;20022;-57
2023/04/23 09:00:14;;;;;;;3.53;2.25;;;24.70;99.90;;;;;;4996595;28;20033;-59
2023/04/23 09:02:43;;;;;;;4.05;2.10;;;24.70;99.90;;;;;;4996702;28;20030;-58
2023/04/23 09:05:10;;;;;;;3.35;1.90;;;24.70;99.90;;;;;;4996586;28;20547;-57
2023/04/23 09:07:36;;;;;;;4.53;1.95;;;24.70;99.90;;;;;;5014320;28;20022;-57
2023/04/23 09:10:03;;;;;;;3.55;1.77;;;24.70;99.90;;;;;;5013350;28;20559;-57
2023/04/23 09:12:29;;;;;;;2.13;1.63;;;24.70;99.90;;;;;;5002172;28;20029;-57
2023/04/23 09:14:55;;;;;;;2.78;1.98;;;24.70;99.90;;;;;;5013771;28;20047;-56
2023/04/23 09:17:22;;;;;;;2.17;1.50;;;24.70;99.90;;;;;;5000832;28;20022;-57
2023/04/23 09:19:50;;;;;;;3.25;2.10;;;24.70;99.90;;;;;;5014255;28;20152;-58
2023/04/23 09:22:36;;;;;;;2.58;2.10;;;24.70;99.90;;;;;;5014081;28;20033;-57
2023/04/23 09:25:04;;;;;;;2.75;2.10;;;24.70;99.90;;;;;;5013700;28;20022;-58
2023/04/23 09:27:30;;;;;;;;;;;24.70;99.90;;;;;;5014275;28;20018;-57
2023/04/23 09:29:58;;;;;;;3.67;1.73;;;24.80;99.90;;;;;;5013826;28;20332;-57
2023/04/23 09:32:34;;;;;;;2.60;1.95;;;24.80;99.90;;;;;;5013601;28;20064;-57
2023/04/23 09:35:04;;;;;;;2.92;1.90;;;24.70;99.90;;;;;;5013772;28;20028;-56
2023/04/23 09:37:31;;;;;;;4.78;1.92;;;24.80;99.90;;;;;;4983486;28;20504;-56
2023/04/23 09:40:03;;;;;;;4.43;1.85;;;24.70;99.90;;;;;;5013512;28;20085;-56
2023/04/23 09:42:29;;;;;;;4.10;2.25;;;24.80;99.90;;;;;;5013605;28;20118;-56
2023/04/23 09:45:10;;;;;;;3.92;1.83;;;24.80;99.90;;;;;;5013462;28;20026;-56
2023/04/23 09:47:55;;;;;;;2.50;2.00;;;24.80;99.90;;;;;;5013526;28;20029;-56
2023/04/23 09:50:34;;;;;;;3.22;1.98;;;24.80;99.90;;;;;;4995742;28;20049;-57
2023/04/23 09:53:00;;;;;;;2.53;2.00;;;24.80;99.90;;;;;;5013457;28;20494;-57
2023/04/23 09:55:36;;;;;;;3.25;2.08;;;24.80;99.90;;;;;;5010177;28;20018;-57
2023/04/23 09:58:03;;;;;;;2.75;2.05;;;24.80;99.90;;;;;;5004714;28;20049;-57
2023/04/23 10:00:36;;;;;;;3.70;2.60;;;24.80;99.90;;;;;;4995245;28;20042;-56
2023/04/23 10:03:03;;;;;;;3.67;2.13;;;24.80;99.90;;;;;;5013182;28;20042;-56
2023/04/23 10:05:29;;;;;;;3.33;2.40;;;24.80;99.90;;;;;;5012661;28;20487;-56
2023/04/23 10:07:56;;;;;;;2.92;2.35;;;24.80;99.90;;;;;;5013280;28;20050;-56
2023/04/23 10:10:23;;;;;;;5.47;2.53;;;24.80;99.90;;;;;;5012574;28;20056;-57
2023/04/23 10:12:52;;;;;;;3.35;2.40;;;24.90;99.90;;;;;;5013204;28;20116;-56
2023/04/23 10:15:18;;;;;;;3.67;2.30;;;24.90;99.90;;;;;;5012742;28;20107;-57
2023/04/23 10:17:46;;;;;;;3.05;2.35;;;24.90;99.90;;;;;;4995503;28;20096;-56
2023/04/23 10:20:13;;;;;;;3.83;2.97;;;24.90;99.90;;;;;;4995219;28;20036;-55
2023/04/23 10:22:43;;;;;;;3.22;2.53;;;24.90;99.90;;;;;;4995238;28;20036;-57
2023/04/23 10:25:11;;;;;;;2.85;2.50;;;24.90;99.90;;;;;;4995370;28;20374;-56
2023/04/23 10:27:39;;;;;;;3.03;2.15;;;24.90;99.90;;;;;;5005762;28;20476;-56
2023/04/23 10:30:06;;;;;;;3.42;2.58;;;24.90;99.90;;;;;;5006856;28;20029;-56
2023/04/23 10:32:33;;;;;;;3.45;2.75;;;25.00;99.90;;;;;;5012585;28;20022;-56
2023/04/23 10:34:59;;;;;;;4.35;2.80;;;25.00;99.90;;;;;;5012646;28;20557;-56
2023/04/23 10:37:26;;;;;;;3.38;2.65;;;25.00;99.90;;;;;;5012459;28;20097;-57
2023/04/23 10:40:00;;;;;;;5.55;3.03;;;25.00;99.90;;;;;;5012708;28;20038;-56
2023/04/23 10:42:26;;;;;;;4.32;3.03;;;25.00;99.90;;;;;;4987501;28;20046;-56
2023/04/23 10:44:58;;;;;;;3.63;3.05;;;25.00;99.90;;;;;;4994499;28;20045;-56
2023/04/23 10:47:23;;;;;;;4.13;3.08;;;25.00;99.90;;;;;;5006301;28;20026;-56
2023/04/23 10:49:50;;;;;;;4.50;3.15;;;25.00;99.90;;;;;;5006060;28;20033;-55
2023/04/23 10:52:17;;;;;;;3.10;2.53;;;25.00;99.90;;;;;;4981760;28;20373;-55
2023/04/23 10:54:56;;;;;;;9.50;3.35;;;25.00;99.90;;;;;;5012423;28;20022;-56
2023/04/23 10:57:21;;;;;;;6.65;3.30;;;25.00;99.90;;;;;;5012415;28;20026;-56
2023/04/23 10:59:52;;;;;;;6.15;3.28;;;25.10;99.90;;;;;;5011850;28;20052;-55
2023/04/23 11:02:18;;;;;;;4.50;3.08;;;25.10;99.90;;;;;;5011928;28;20034;-56
2023/04/23 11:04:47;;;;;;;4.25;2.80;;;25.10;99.90;;;;;;5012067;28;20324;-55
2023/04/23 11:07:13;;;;;;;5.22;3.10;;;25.10;99.90;;;;;;5011890;28;20037;-55
2023/04/23 11:09:40;;;;;;;4.75;3.15;;;25.10;99.90;;;;;;5012267;28;20022;-56
2023/04/23 11:12:09;;;;;;;4.17;3.10;;;25.20;99.90;;;;;;5011201;28;20075;-55
2023/04/23 11:14:46;;;;;;;4.05;3.10;;;25.20;99.90;;;;;;5011830;28;20322;-56
2023/04/23 11:17:14;;;;;;;6.60;3.20;;;25.20;99.90;;;;;;5011845;28;20014;-56
2023/04/23 11:19:41;;;;;;;6.05;3.25;;;25.20;99.90;;;;;;5012290;28;20384;-56
2023/04/23 11:22:16;;;;;;;4.22;3.25;;;25.20;99.90;;;;;;4998673;28;20083;-56
2023/04/23 11:24:43;;;;;;;6.50;3.60;;;25.20;99.90;;;;;;5012032;28;20109;-56
2023/04/23 11:27:16;;;;;;;5.18;2.78;;;25.20;99.90;;;;;;5011767;28;20026;-56
2023/04/23 11:29:44;;;;;;;6.82;3.33;;;25.20;99.90;;;;;;5011644;28;20030;-55
2023/04/23 11:32:12;;;;;;;5.32;3.55;;;25.20;99.90;;;;;;5011968;28;20501;-55
2023/04/23 11:34:46;;;;;;;3.92;2.88;;;25.30;99.90;;;;;;4993947;28;20392;-55
2023/04/23 11:37:14;;;;;;;4.97;2.88;;;25.30;99.90;;;;;;4983919;28;20030;-56
2023/04/23 11:39:41;;;;;;;4.50;3.22;;;25.30;99.90;;;;;;4994483;28;20033;-56
2023/04/23 11:42:14;;;;;;;6.18;3.38;;;25.30;99.90;;;;;;4992428;28;20493;-55
2023/04/23 11:44:41;;;;;;;4.65;3.63;;;25.30;99.90;;;;;;4991112;28;20314;-55
2023/04/23 11:47:11;;;;;;;3.75;3.08;;;25.30;99.90;;;;;;5011795;28;20014;-56
2023/04/23 11:49:39;;;;;;;5.70;3.58;;;25.40;99.90;;;;;;4994368;28;20039;-57
2023/04/23 11:52:05;;;;;;;3.72;2.10;;;25.30;99.90;;;;;;4994367;28;20494;-58
2023/04/23 11:54:32;;;;;;;4.50;1.75;;;25.30;99.90;;;;;;5011737;28;20033;-57
2023/04/23 11:56:58;;;;;;;4.28;2.05;;;25.30;99.90;;;;;;5011130;28;20030;-57
2023/04/23 11:59:25;;;;;;;3.13;1.70;;;25.30;99.90;;;;;;5012174;28;20451;-56
2023/04/23 12:01:56;;;;;;;4.35;2.63;;;25.30;99.90;;;;;;5011572;28;20026;-57
2023/04/23 12:04:27;;;;;;;10.50;5.78;;;25.30;99.90;;;;;;5011698;28;20543;-57
2023/04/23 12:06:54;;;;;;;8.52;5.28;;;25.30;99.90;;;;;;5011795;28;20380;-57
2023/04/23 12:09:25;;;;;;;7.50;3.33;;;25.30;99.90;;;;;;5011050;28;20506;-57
2023/04/23 12:11:51;;;;;;;4.47;3.25;;;25.30;99.90;;;;;;5011725;28;20022;-57
2023/04/23 12:14:20;;;;;;;5.25;2.45;;;25.30;99.90;;;;;;5011640;28;20022;-57
2023/04/23 12:16:51;;;;;;;6.55;4.47;;;25.30;99.90;;;;;;4993107;28;20033;-56
2023/04/23 12:19:30;;;;;;;10.13;6.82;;;25.30;99.90;;;;;;5011203;28;20029;-57
2023/04/23 12:22:01;;;;;;;11.20;7.70;;;25.30;99.90;;;;;;5011332;28;20514;-57
2023/04/23 12:24:50;;;;;;;7.88;5.78;;;25.30;99.90;;;;;;5011144;28;20084;-56
2023/04/23 12:27:19;;;;;;;5.20;3.60;;;25.40;99.90;;;;;;5012429;28;20030;-56
2023/04/23 12:29:46;;;;;;;9.18;6.80;;;25.40;99.90;;;;;;5014704;28;20021;-57
2023/04/23 12:32:13;;;;;;;;;;;25.40;99.90;;;;;;5014281;28;20032;-56
2023/04/23 12:34:54;;;;;;;10.15;8.32;;;25.40;99.90;;;;;;5014279;28;20326;-55
2023/04/23 12:37:29;;;;;;;22.05;11.10;;;25.40;99.90;;;;;;4997068;28;20033;-56
2023/04/23 12:39:58;;;;;;;36.38;12.13;;;25.40;99.90;;;;;;5014300;28;20022;-56
2023/04/23 12:42:24;;;;;;;20.00;10.00;;;25.40;99.90;;;;;;5014230;28;20044;-56
2023/04/23 12:44:50;;;;;;;19.60;10.02;;;25.40;99.90;;;;;;5014563;28;20478;-57
2023/04/23 12:47:19;;;;;;;21.02;9.27;;;25.40;99.90;;;;;;5014646;28;20033;-57